• Join FlightAware (Why Join?)
  • Login
  • US Flag 
12:32AM EDT


 

Airport Tracker/Info


-or-


 

Live Flight TrackerFlight Track Log ✈ KAP46 ✈ 09-Aug-2013 ✈ KALB - KMSS

Flight Track Log - Related Links

Times and Time Zones

All times are in EDT time to prevent confusion due to time zone crossing. See the KAP46 flight status page for this flight to view local times or setup timezone preferences in your user account.

Time Position Orientation Groundspeed Altitude Reporting Facility
EDT Latitude Longitude Course Direction KTS MPH feet Rate Location/Type
07:11PM 42.8192 -73.8383 337° Northwest 137 158 1,500  Level Boston Center
07:12PM 42.8564 -73.8506 346° North 136 157 1,800 420 Climbing Boston Center
07:14PM 42.8958 -73.8628 347° North 136 157 2,400 540 Climbing Boston Center
07:15PM 42.9331 -73.8806 341° North 127 146 3,100 540 Climbing Boston Center
07:16PM 42.9622 -73.8983 336° Northwest 124 143 3,500 480 Climbing Boston Center
07:17PM 42.9972 -73.9133 343° North 124 143 4,100 540 Climbing Boston Center
07:18PM 43.0283 -73.9283 341° North 123 142 4,700 480 Climbing Boston Center
07:19PM 43.0575 -73.9406 343° North 124 143 5,100 480 Climbing Boston Center
07:19PM 43.0761 -73.9522 335° Northwest 131 151 5,400 540 Climbing Boston Center
07:20PM 43.1092 -73.9644 345° North 131 151 5,900 420 Climbing Boston Center
07:21PM 43.1464 -73.9825 341° North 131 151 6,300 420 Climbing Boston Center
07:22PM 43.1797 -73.9975 342° North 136 157 6,800 540 Climbing Boston Center
07:23PM 43.2003 -74.0094 337° Northwest 135 155 7,200 540 Climbing Boston Center
07:23PM 43.2147 -74.0128 350° North 136 157 7,400 360 Climbing Boston Center
07:24PM 43.2356 -74.0247 337° Northwest 133 153 7,600 240 Climbing Boston Center
07:25PM 43.2914 -74.0489 343° North 143 165 8,000 120 Climbing Boston Center
07:26PM 43.3369 -74.0786 335° Northwest 155 178 8,000  Level Boston Center
07:27PM 43.3742 -74.0967 341° North 155 178 8,000 -60 Level Boston Center
07:28PM 43.4114 -74.1206 335° Northwest 155 178 7,900  Descending Boston Center
07:29PM 43.4569 -74.1333 348° North 155 178 8,000 60 Climbing Boston Center
07:30PM 43.4964 -74.1544 339° North 155 178 8,100 240 Climbing Boston Center
07:31PM 43.5336 -74.1697 343° North 149 171 8,600 540 Climbing Boston Center
07:32PM 43.5750 -74.1853 345° North 149 171 9,200 540 Climbing Boston Center
07:33PM 43.6142 -74.2036 341° North 149 171 9,700 300 Climbing Boston Center
07:34PM 43.6536 -74.2250 339° North 149 171 9,900 120 Climbing Boston Center
07:35PM 43.6972 -74.2406 346° North 149 171 10,000  Climbing Boston Center
07:36PM 43.7406 -74.2564 345° North 156 180 10,000 -60 Level Boston Center
07:37PM 43.7864 -74.2692 349° North 161 185 9,900 -60 Descending Boston Center
07:38PM 43.8319 -74.2764 353° North 161 185 9,900  Level Boston Center
07:39PM 43.8756 -74.2864 351° North 161 185 9,900  Level Boston Center
07:40PM 43.9214 -74.2878 359° North 161 185 9,900  Level Boston Center
07:41PM 43.9650 -74.2978 351° North 161 185 9,900 -60 Level Boston Center
07:42PM 44.0022 -74.3161 340° North 155 178 9,800  Descending Boston Center
07:43PM 44.0456 -74.3378 340° North 155 178 9,900 60 Climbing Boston Center
07:44PM 44.0869 -74.3536 345° North 155 178 10,000  Climbing Boston Center
07:45PM 44.1283 -74.3722 342° North 150 173 10,000 -60 Level Boston Center
07:46PM 44.1719 -74.3939 340° North 150 173 9,900 -300 Descending Boston Center
07:47PM 44.2172 -74.4156 341° North 156 180 9,500 -480 Descending Boston Center
07:48PM 44.2669 -74.4406 340° North 172 198 9,000 -540 Descending Boston Center
07:49PM 44.3164 -74.4625 342° North 178 205 8,500 -600 Descending Boston Center
07:50PM 44.3661 -74.4844 342° North 184 212 7,900 -600 Descending Boston Center
07:51PM 44.4156 -74.5094 340° North 184 212 7,300 -600 Descending Boston Center
07:52PM 44.4631 -74.5372 337° Northwest 184 212 6,700 -540 Descending Boston Center
07:53PM 44.5042 -74.5650 334° Northwest 184 212 6,300 -480 Descending Boston Center
07:54PM 44.5539 -74.5900 340° North 179 206 5,800 -540 Descending Boston Center
07:55PM 44.5992 -74.6122 341° North 179 206 5,300 -540 Descending Boston Center